SAMESCEL

Guest
Details From SAME - El Plumerillo
To SCEL - Arturo Merino Benitez Intl
Flight Number -
Tags decoded
Created
Modified
Stats Distance 106 nm / 197 km
Max Altitude 0 ft / 0 m
Waypoints 2
Social Downloads 1
Likes 0
Share VATSIM

Download

Looking for another format? Having issues loading an existing format? Contact us
Advertisement - Login to hide

Notes

Requested: SAME SCEL

Route

SAME SCEL

ID Type Via Altitude Latitude Longitude Leg Dist Tot Dist Heading (true) Name
O SAME APT - 0 ft / 0 m -32.83175˚ -68.79294˚ - 0 nm - El Plumerillo
O SCEL APT - 0 ft / 0 m -33.38978˚ -70.79437˚ 106 nm 106 nm 251° / 252° Arturo Merino Benitez Intl

Altitude Profile

Advertisement - Login to hide

SAME

Details ICAO SAME (MDZ)
Name El Plumerillo
Region Argentina
Timezone America/Argentina/Mendoza (UTC-3.0)
Stats Elevation 2,310 ft / 704 m (AMSL)
Location -32.831753° -68.792941°
Runways 1
Magnetic Variation 0.380° W

METAR

SAME 142300Z 05003KT CAVOK 33/08 Q1010

Decode

TAF

TAF SAME 141700Z 1418/1518 05010KT 9999 FEW040 TX34/1420Z TN20/1510Z BECMG 1422/1500 VRB03KT 9999 FEW040

Decode

Departure Runways

ID Width Length Bearing (true) Bearing (mag) Surface Threshold Offset Overrun Length
18 177 ft / 54 m 9,915 ft / 3,022 m 180.83° 181.21° Concrete 381 ft / 116 m 0 ft / 0 m
36 177 ft / 54 m 9,915 ft / 3,022 m 0.83° 1.21° Concrete 361 ft / 110 m 0 ft / 0 m

SCEL

Details ICAO SCEL (SCL)
Name Arturo Merino Benitez Intl
Region Chile
Timezone America/Santiago (UTC-3.0)
Stats Elevation 1,550 ft / 472 m (AMSL)
Location -33.389775° -70.794366°
Runways 2
Magnetic Variation 1.802° E

METAR

SCEL 142300Z 22012KT CAVOK 30/08 Q1013 NOSIG

Decode

TAF

TAF AMD SCEL 141848Z 1419/1518 19012KT 8000 NSC TX33/1419Z TN12/1510Z BECMG 1501/1503 16004KT 8000 NSC TEMPO 1510/1512 5000 HZ BECMG 1516/ 1518 19010KT

Decode

Destination Runways

ID Width Length Bearing (true) Bearing (mag) Surface Threshold Offset Overrun Length
17L 180 ft / 55 m 10,523 ft / 3,207 m 177.43° 175.63° Asphalt 0 ft / 0 m 0 ft / 0 m
17R 148 ft / 45 m 12,504 ft / 3,811 m 177.44° 175.64° Asphalt 0 ft / 0 m 0 ft / 0 m
35L 148 ft / 45 m 12,504 ft / 3,811 m 357.44° 355.64° Asphalt 0 ft / 0 m 0 ft / 0 m
35R 180 ft / 55 m 10,523 ft / 3,207 m 357.43° 355.63° Asphalt 1,800 ft / 549 m 0 ft / 0 m

Approach Navaids

Runway Type Ident Frequency Range Bearing (true) Bearing (mag) Slope Elevation
17L Localiser IUEL 110.30 MHz 18 nm / 33 km 173.64° 171.84° - 1,555 ft / 474 m (AMSL)
17L Glidescope IUEL 110.30 MHz 10 nm / 19 km 174.00° 172.20° 3.00° 1,555 ft / 474 m (AMSL)
17L DME IUEL 110.30 MHz 18 nm / 33 km - - - 1,557 ft / 475 m (AMSL)
17R Localiser IMER 111.10 MHz 18 nm / 33 km 174.24° 172.44° - 1,555 ft / 474 m (AMSL)
17R Glidescope IMER 111.10 MHz 10 nm / 19 km 174.00° 172.20° 3.00° 1,555 ft / 474 m (AMSL)
17R DME IMER 111.10 MHz 18 nm / 33 km - - - 1,555 ft / 474 m (AMSL)

Popular Alternatives